Time;durP1;ratioP1;P1;durP2;ratioP2;P2;SDS_P1;SDS_P2;PMS_P1;PMS_P2;Temp;Humidity;BMP_temperature;BMP_pressure;BME280_temperature;BME280_humidity;BME280_pressure;Samples;Min_cycle;Max_cycle;Signal;HPM_P1;HPM_P2
2021/03/19 00:01:23;;;;;;;8.45;3.95;;;5.40;99.90;;;;;;5039316;28;20052;-60
2021/03/19 00:03:48;;;;;;;12.20;5.13;;;5.50;99.90;;;;;;5048480;28;20037;-59
2021/03/19 00:06:14;;;;;;;12.63;4.60;;;5.50;99.90;;;;;;5037963;28;20502;-59
2021/03/19 00:08:40;;;;;;;12.27;4.30;;;5.50;99.90;;;;;;5047225;28;20033;-59
2021/03/19 00:11:06;;;;;;;13.65;4.22;;;5.40;99.90;;;;;;5041956;28;20029;-59
2021/03/19 00:13:32;;;;;;;7.93;4.30;;;5.40;99.90;;;;;;5045820;28;20052;-59
2021/03/19 00:15:57;;;;;;;7.18;3.92;;;5.30;99.90;;;;;;5043068;28;20033;-59
2021/03/19 00:18:23;;;;;;;9.32;3.47;;;5.40;99.90;;;;;;5045035;28;20013;-59
2021/03/19 00:20:50;;;;;;;13.15;4.22;;;5.20;99.90;;;;;;5043495;28;20095;-59
2021/03/19 00:23:16;;;;;;;7.07;4.32;;;5.40;99.90;;;;;;5043506;28;20028;-59
2021/03/19 00:25:43;;;;;;;16.10;4.90;;;5.20;99.90;;;;;;5044862;28;20553;-59
2021/03/19 00:28:18;;;;;;;7.90;3.92;;;5.20;99.90;;;;;;5042588;28;20032;-59
2021/03/19 00:30:46;;;;;;;8.63;4.32;;;5.20;99.90;;;;;;5044613;28;20389;-59
2021/03/19 00:33:13;;;;;;;8.02;4.35;;;5.10;99.90;;;;;;5042620;28;20025;-59
2021/03/19 00:35:39;;;;;;;8.35;4.57;;;5.10;99.90;;;;;;5044527;28;20082;-60
2021/03/19 00:38:05;;;;;;;12.40;5.15;;;5.20;99.90;;;;;;5041699;28;20036;-59
2021/03/19 00:40:32;;;;;;;10.60;4.78;;;5.10;99.90;;;;;;5046100;28;20029;-59
2021/03/19 00:42:58;;;;;;;6.97;4.43;;;5.10;99.90;;;;;;5040717;28;20029;-59
2021/03/19 00:45:25;;;;;;;8.75;4.40;;;5.10;99.90;;;;;;5045667;28;20020;-59
2021/03/19 00:47:52;;;;;;;9.45;5.15;;;5.20;99.90;;;;;;5040541;28;20020;-59
2021/03/19 00:50:22;;;;;;;7.18;4.88;;;5.20;99.90;;;;;;5045766;28;20375;-59
2021/03/19 00:52:48;;;;;;;5.75;3.90;;;5.10;99.90;;;;;;5040205;28;20048;-59
2021/03/19 00:55:14;;;;;;;7.95;4.90;;;5.10;99.90;;;;;;5045848;28;20052;-59
2021/03/19 00:57:39;;;;;;;7.90;4.57;;;5.20;99.90;;;;;;5040358;28;20112;-59
2021/03/19 01:00:07;;;;;;;10.60;4.05;;;5.10;99.90;;;;;;5045761;28;20456;-59
2021/03/19 01:02:32;;;;;;;7.13;4.05;;;5.10;99.90;;;;;;5040173;28;20566;-59
2021/03/19 01:04:58;;;;;;;7.45;4.43;;;5.20;99.90;;;;;;5043903;28;20033;-59
2021/03/19 01:07:24;;;;;;;11.45;4.75;;;5.20;99.90;;;;;;5038515;28;20525;-59
2021/03/19 01:09:50;;;;;;;8.50;4.60;;;5.20;99.90;;;;;;5047198;28;20040;-59
2021/03/19 01:12:16;;;;;;;8.52;4.25;;;5.20;99.90;;;;;;5038837;28;20067;-59
2021/03/19 01:14:41;;;;;;;7.13;3.85;;;5.20;99.90;;;;;;5047861;28;20060;-59
2021/03/19 01:17:07;;;;;;;7.28;4.10;;;5.20;99.90;;;;;;5037933;28;20017;-59
2021/03/19 01:19:33;;;;;;;8.77;3.80;;;5.20;99.90;;;;;;5046546;28;20024;-60
2021/03/19 01:21:59;;;;;;;5.80;3.90;;;5.20;99.90;;;;;;5036391;28;20041;-59
2021/03/19 01:24:25;;;;;;;10.02;4.95;;;5.20;99.90;;;;;;5048980;28;20401;-59
2021/03/19 01:26:50;;;;;;;9.02;3.72;;;5.30;99.90;;;;;;5036645;28;20040;-60
2021/03/19 01:29:16;;;;;;;6.35;4.22;;;5.30;99.90;;;;;;5048897;28;20040;-59
2021/03/19 01:31:41;;;;;;;7.45;4.25;;;5.40;99.90;;;;;;5036468;28;20593;-59
2021/03/19 01:34:07;;;;;;;6.85;3.75;;;5.30;99.90;;;;;;5048902;28;20033;-59
2021/03/19 01:36:33;;;;;;;7.43;4.30;;;5.30;99.90;;;;;;5040251;28;20032;-59
2021/03/19 01:38:59;;;;;;;8.07;3.90;;;5.30;99.90;;;;;;5029504;28;20032;-59
2021/03/19 01:41:24;;;;;;;7.82;3.67;;;5.40;99.90;;;;;;5034008;28;20269;-59
2021/03/19 01:44:12;;;;;;;8.35;4.32;;;5.30;99.90;;;;;;5046904;28;20068;-60
2021/03/19 01:47:15;;;;;;;11.85;4.85;;;5.40;99.90;;;;;;5036660;28;20025;-59
2021/03/19 01:50:18;;;;;;;10.77;4.25;;;5.30;99.90;;;;;;5010479;28;20022;-59
2021/03/19 01:53:20;;;;;;;13.23;4.93;;;5.20;99.90;;;;;;5035086;28;20598;-59
2021/03/19 01:56:23;;;;;;;6.80;4.00;;;5.10;99.90;;;;;;5033816;28;20661;-59
2021/03/19 01:59:26;;;;;;;9.85;4.25;;;5.40;99.90;;;;;;5046795;28;20040;-59
2021/03/19 02:02:29;;;;;;;7.32;3.53;;;5.40;99.90;;;;;;5036197;28;20048;-59
2021/03/19 02:05:32;;;;;;;8.45;4.25;;;5.30;99.90;;;;;;5043773;28;20097;-59
2021/03/19 02:08:35;;;;;;;10.18;4.05;;;5.30;99.90;;;;;;5037134;28;20025;-59
2021/03/19 02:11:39;;;;;;;7.22;3.83;;;5.30;99.90;;;;;;5033853;28;20627;-59
2021/03/19 02:14:41;;;;;;;7.70;3.72;;;5.40;99.90;;;;;;5009116;28;20041;-59
2021/03/19 02:17:45;;;;;;;7.85;3.70;;;5.40;99.90;;;;;;5038764;28;20045;-59
2021/03/19 02:20:48;;;;;;;8.27;3.78;;;5.30;99.90;;;;;;5033337;28;20029;-59
2021/03/19 02:23:51;;;;;;;9.73;3.60;;;5.20;99.90;;;;;;5038438;28;20029;-59
2021/03/19 02:26:54;;;;;;;8.95;4.03;;;5.20;99.90;;;;;;5042777;28;20029;-60
2021/03/19 02:29:57;;;;;;;7.20;3.70;;;5.10;99.90;;;;;;5012462;28;20105;-59
2021/03/19 02:32:24;;;;;;;7.80;3.53;;;5.20;99.90;;;;;;5041527;28;20025;-59
2021/03/19 02:34:57;;;;;;;6.95;3.80;;;5.30;99.90;;;;;;5050239;28;20025;-59
2021/03/19 02:37:26;;;;;;;11.20;3.50;;;5.30;99.90;;;;;;5041378;28;20032;-59
2021/03/19 02:39:52;;;;;;;7.40;3.88;;;5.30;99.90;;;;;;5049950;28;20117;-59
2021/03/19 02:42:21;;;;;;;10.52;3.83;;;5.30;99.90;;;;;;5041354;28;20055;-59
2021/03/19 02:44:46;;;;;;;9.77;4.00;;;5.30;99.90;;;;;;5050239;28;20481;-59
2021/03/19 02:47:13;;;;;;;8.38;4.10;;;5.40;99.90;;;;;;5040109;28;20075;-59
2021/03/19 02:49:39;;;;;;;9.85;4.22;;;5.20;99.90;;;;;;5050555;28;20029;-59
2021/03/19 02:52:05;;;;;;;10.10;3.92;;;5.30;99.90;;;;;;5040456;28;20033;-59
2021/03/19 02:54:31;;;;;;;9.02;3.85;;;5.20;99.90;;;;;;5031507;28;20026;-59
2021/03/19 02:56:57;;;;;;;10.98;4.03;;;5.30;99.90;;;;;;5039032;28;20052;-59
2021/03/19 02:59:22;;;;;;;8.43;4.07;;;5.40;99.90;;;;;;5042908;28;20022;-59
2021/03/19 03:01:48;;;;;;;8.40;3.88;;;5.30;99.90;;;;;;5037422;28;20485;-59
2021/03/19 03:04:15;;;;;;;12.50;4.25;;;5.30;99.90;;;;;;5051533;28;20492;-59
2021/03/19 03:06:45;;;;;;;4.97;3.45;;;5.20;99.90;;;;;;5033509;28;20164;-59
2021/03/19 03:09:13;;;;;;;11.00;3.72;;;5.30;99.90;;;;;;5051286;28;20025;-59
2021/03/19 03:11:40;;;;;;;15.57;4.28;;;5.30;99.90;;;;;;5039021;28;20547;-59
2021/03/19 03:14:09;;;;;;;10.18;3.97;;;5.30;99.90;;;;;;5011626;28;20030;-59
2021/03/19 03:16:35;;;;;;;8.57;4.35;;;5.40;99.90;;;;;;5033159;28;20511;-60
2021/03/19 03:19:01;;;;;;;11.60;4.05;;;5.40;99.90;;;;;;5050712;28;20153;-60
2021/03/19 03:21:27;;;;;;;8.13;4.47;;;5.40;99.90;;;;;;5039592;28;20036;-59
2021/03/19 03:23:54;;;;;;;7.72;3.90;;;5.30;99.90;;;;;;5049229;28;20032;-60
2021/03/19 03:26:20;;;;;;;7.53;3.80;;;5.20;99.90;;;;;;5041376;28;20478;-59
2021/03/19 03:28:46;;;;;;;11.15;4.30;;;5.20;99.90;;;;;;5048239;28;20024;-60
2021/03/19 03:31:12;;;;;;;9.30;4.50;;;5.30;99.90;;;;;;5041799;28;20033;-60
2021/03/19 03:33:37;;;;;;;12.10;4.03;;;5.30;99.90;;;;;;5046970;28;20046;-59
2021/03/19 03:36:04;;;;;;;11.38;4.22;;;5.40;99.90;;;;;;5042619;28;20037;-59
2021/03/19 03:38:30;;;;;;;8.63;3.75;;;5.30;99.90;;;;;;5045825;28;20493;-59
2021/03/19 03:41:09;;;;;;;5.72;3.28;;;5.40;99.90;;;;;;5044345;28;20064;-59
2021/03/19 03:43:36;;;;;;;12.45;4.47;;;5.30;99.90;;;;;;5046229;28;20059;-59
2021/03/19 03:46:03;;;;;;;9.25;3.92;;;5.30;99.90;;;;;;5034760;28;20108;-60
2021/03/19 03:48:31;;;;;;;14.00;4.40;;;5.30;99.90;;;;;;5044478;28;20037;-59
2021/03/19 03:50:59;;;;;;;12.50;3.80;;;5.40;99.90;;;;;;5041903;28;20017;-59
2021/03/19 03:53:25;;;;;;;12.88;3.95;;;5.30;99.90;;;;;;5036230;28;20032;-59
2021/03/19 03:55:51;;;;;;;10.95;3.70;;;5.20;99.90;;;;;;5035397;28;20036;-59
2021/03/19 03:58:18;;;;;;;9.75;3.75;;;5.10;99.90;;;;;;5042826;28;20027;-59
2021/03/19 04:00:44;;;;;;;10.52;4.22;;;5.10;99.90;;;;;;5045582;28;20017;-60
2021/03/19 04:03:11;;;;;;;8.98;3.90;;;5.10;99.90;;;;;;5042176;28;20029;-59
2021/03/19 04:05:43;;;;;;;13.80;4.32;;;5.10;99.90;;;;;;5043006;28;20037;-59
2021/03/19 04:08:11;;;;;;;8.65;3.80;;;5.10;99.90;;;;;;5034174;28;20033;-60
2021/03/19 04:10:38;;;;;;;12.80;4.43;;;5.10;99.90;;;;;;5046404;28;20025;-59
2021/03/19 04:13:04;;;;;;;10.00;4.50;;;5.10;99.90;;;;;;5032866;28;20017;-59
2021/03/19 04:15:30;;;;;;;12.38;4.35;;;5.20;99.90;;;;;;5046340;28;20155;-59
2021/03/19 04:17:59;;;;;;;11.32;4.30;;;5.10;99.90;;;;;;5041046;28;20464;-59
2021/03/19 04:20:26;;;;;;;11.25;4.75;;;5.20;99.90;;;;;;5045946;28;20029;-59
2021/03/19 04:22:52;;;;;;;9.75;3.95;;;5.10;99.90;;;;;;5040709;28;20487;-59
2021/03/19 04:25:18;;;;;;;10.43;3.92;;;5.00;99.90;;;;;;5046042;28;20075;-60
2021/03/19 04:28:06;;;;;;;12.68;3.90;;;5.10;99.90;;;;;;5040888;28;20029;-60
2021/03/19 04:30:39;;;;;;;11.40;3.90;;;4.90;99.90;;;;;;5045967;28;20108;-60
2021/03/19 04:33:11;;;;;;;10.48;4.32;;;5.00;99.90;;;;;;5032897;28;20120;-60
2021/03/19 04:35:37;;;;;;;7.70;3.65;;;4.90;99.90;;;;;;5045186;28;20025;-60
2021/03/19 04:38:10;;;;;;;12.48;4.10;;;4.90;99.90;;;;;;5040777;28;20540;-60
2021/03/19 04:40:39;;;;;;;10.13;4.00;;;4.90;99.90;;;;;;5046014;28;20029;-60
2021/03/19 04:43:05;;;;;;;9.57;3.42;;;5.00;99.90;;;;;;5031677;28;20044;-60
2021/03/19 04:45:31;;;;;;;6.35;3.42;;;5.00;99.90;;;;;;5035654;28;20021;-60
2021/03/19 04:47:57;;;;;;;14.50;4.18;;;5.00;99.90;;;;;;5037837;28;20029;-60
2021/03/19 04:50:24;;;;;;;12.15;3.55;;;5.00;99.90;;;;;;5032186;28;20108;-60
2021/03/19 04:52:50;;;;;;;10.43;4.20;;;5.10;99.90;;;;;;5040254;28;20033;-60
2021/03/19 04:55:17;;;;;;;9.38;3.72;;;5.00;99.90;;;;;;5045616;28;20033;-60
2021/03/19 04:57:43;;;;;;;12.07;3.70;;;4.90;99.90;;;;;;5040223;28;20028;-60
2021/03/19 05:00:11;;;;;;;9.18;3.67;;;5.00;99.90;;;;;;5045725;28;20033;-60
2021/03/19 05:02:40;;;;;;;11.98;4.15;;;5.00;99.90;;;;;;5040346;28;20041;-60
2021/03/19 05:05:09;;;;;;;14.20;4.38;;;5.00;99.90;;;;;;5042800;28;20048;-60
2021/03/19 05:07:34;;;;;;;11.20;4.07;;;5.10;99.90;;;;;;5033275;28;20026;-60
2021/03/19 05:10:00;;;;;;;12.98;3.88;;;5.00;99.90;;;;;;5030134;28;20021;-60
2021/03/19 05:12:26;;;;;;;8.75;3.75;;;5.10;99.90;;;;;;5039424;28;20040;-60
2021/03/19 05:14:51;;;;;;;8.60;3.63;;;5.10;99.90;;;;;;5047542;28;20032;-60
2021/03/19 05:17:17;;;;;;;11.63;3.72;;;5.20;99.90;;;;;;5033689;28;20121;-60
2021/03/19 05:19:43;;;;;;;10.18;3.83;;;5.10;99.90;;;;;;5028991;28;20021;-60
2021/03/19 05:22:08;;;;;;;7.40;3.60;;;5.20;99.90;;;;;;5037973;28;20083;-60
2021/03/19 05:24:34;;;;;;;8.82;4.22;;;5.20;99.90;;;;;;5029241;28;20033;-60
2021/03/19 05:27:00;;;;;;;6.47;3.05;;;5.10;99.90;;;;;;5036488;28;20033;-61
2021/03/19 05:29:26;;;;;;;11.95;3.78;;;5.20;99.90;;;;;;5048628;28;20112;-60
2021/03/19 05:31:52;;;;;;;9.18;4.15;;;5.20;99.90;;;;;;5036230;28;20049;-60
2021/03/19 05:34:17;;;;;;;9.98;4.03;;;5.30;99.90;;;;;;5049154;28;20035;-60
2021/03/19 05:36:43;;;;;;;11.13;4.18;;;5.00;99.90;;;;;;5035718;28;20041;-60
2021/03/19 05:39:10;;;;;;;12.57;4.75;;;4.90;99.90;;;;;;5022582;28;20100;-60
2021/03/19 05:41:39;;;;;;;8.45;3.33;;;4.90;99.90;;;;;;5031018;28;20089;-60
2021/03/19 05:44:19;;;;;;;10.73;3.95;;;4.90;99.90;;;;;;5028588;28;20018;-61
2021/03/19 05:46:52;;;;;;;12.63;3.40;;;4.90;99.90;;;;;;5028200;28;20060;-60
2021/03/19 05:49:27;;;;;;;9.60;3.58;;;4.90;99.90;;;;;;5026972;28;20692;-60
2021/03/19 05:51:56;;;;;;;10.20;3.78;;;4.80;99.90;;;;;;5034237;28;20060;-60
2021/03/19 05:54:33;;;;;;;9.52;3.55;;;5.00;99.90;;;;;;5051902;28;20033;-60
2021/03/19 05:57:07;;;;;;;11.25;3.90;;;4.70;99.90;;;;;;5036088;28;20546;-60
2021/03/19 05:59:44;;;;;;;8.27;3.55;;;4.60;99.90;;;;;;5031864;28;20025;-61
2021/03/19 06:02:23;;;;;;;8.80;3.80;;;4.70;99.90;;;;;;5032568;28;20595;-61
2021/03/19 06:05:05;;;;;;;15.68;3.67;;;4.80;99.90;;;;;;5030503;28;20037;-60
2021/03/19 06:07:52;;;;;;;11.77;4.18;;;4.90;99.90;;;;;;5031483;28;20033;-61
2021/03/19 06:10:23;;;;;;;8.07;4.47;;;4.80;99.90;;;;;;5033234;28;20543;-61
2021/03/19 06:12:57;;;;;;;7.80;3.42;;;4.60;99.90;;;;;;5034757;28;20017;-61
2021/03/19 06:15:35;;;;;;;10.27;4.00;;;4.70;99.90;;;;;;5034359;28;20498;-60
2021/03/19 06:18:04;;;;;;;9.55;3.67;;;4.80;99.90;;;;;;5036363;28;20029;-60
2021/03/19 06:20:30;;;;;;;9.60;4.00;;;4.70;99.90;;;;;;5034205;28;20452;-60
2021/03/19 06:23:19;;;;;;;8.70;3.80;;;4.70;99.90;;;;;;5037025;28;20049;-61
2021/03/19 06:25:58;;;;;;;6.07;3.60;;;4.60;99.90;;;;;;5032722;28;20067;-61
2021/03/19 06:28:27;;;;;;;12.95;4.53;;;4.60;99.90;;;;;;5030263;28;20035;-60
2021/03/19 06:31:14;;;;;;;14.25;4.13;;;4.60;99.90;;;;;;5034895;28;20133;-60
2021/03/19 06:33:40;;;;;;;10.30;4.13;;;4.70;99.90;;;;;;5030008;28;20029;-61
2021/03/19 06:36:11;;;;;;;9.70;4.55;;;4.80;99.90;;;;;;5031583;28;20029;-62
2021/03/19 06:38:39;;;;;;;7.70;3.78;;;4.60;99.90;;;;;;5033171;28;20025;-62
2021/03/19 06:41:16;;;;;;;12.95;5.10;;;4.60;99.90;;;;;;5033387;28;20053;-62
2021/03/19 06:43:42;;;;;;;10.45;4.15;;;4.60;99.90;;;;;;5030152;28;20083;-62
2021/03/19 06:46:11;;;;;;;9.40;4.50;;;4.70;99.90;;;;;;5034606;28;20021;-62
2021/03/19 06:48:39;;;;;;;19.13;4.70;;;4.70;99.90;;;;;;5032611;28;20033;-62
2021/03/19 06:51:32;;;;;;;8.43;4.32;;;4.40;99.90;;;;;;5031714;28;20096;-62
2021/03/19 06:54:11;;;;;;;12.25;4.80;;;4.50;99.90;;;;;;5032054;28;20037;-62
2021/03/19 06:56:38;;;;;;;11.63;4.88;;;4.50;99.90;;;;;;5032265;28;20512;-61
2021/03/19 06:59:25;;;;;;;8.68;4.25;;;4.60;99.90;;;;;;5031212;28;20029;-61
2021/03/19 07:01:51;;;;;;;16.23;4.70;;;4.70;99.90;;;;;;5030475;28;20076;-61
2021/03/19 07:04:39;;;;;;;11.93;4.25;;;4.60;99.90;;;;;;5027937;28;20037;-62
2021/03/19 07:07:26;;;;;;;13.15;4.90;;;4.60;99.90;;;;;;5029169;28;20068;-61
2021/03/19 07:10:33;;;;;;;9.52;5.28;;;4.70;99.90;;;;;;5029585;28;20056;-61
2021/03/19 07:13:35;;;;;;;9.68;4.25;;;4.60;99.90;;;;;;5031056;28;20038;-61
2021/03/19 07:16:27;;;;;;;10.95;4.18;;;4.40;99.90;;;;;;5030285;28;20116;-62
2021/03/19 07:19:14;;;;;;;8.90;4.60;;;4.40;99.90;;;;;;5029656;28;20564;-61
2021/03/19 07:22:05;;;;;;;12.23;5.32;;;4.50;99.90;;;;;;5027177;28;20052;-61
2021/03/19 07:24:54;;;;;;;17.27;5.90;;;4.40;99.90;;;;;;5029163;28;20033;-61
2021/03/19 07:27:38;;;;;;;11.68;5.57;;;4.40;99.90;;;;;;5027492;28;20075;-62
2021/03/19 07:30:11;;;;;;;10.23;4.63;;;4.40;99.90;;;;;;5029778;28;20517;-61
2021/03/19 07:32:46;;;;;;;12.45;6.28;;;4.40;99.90;;;;;;5030387;28;20050;-61
2021/03/19 07:35:29;;;;;;;15.23;5.95;;;4.50;99.90;;;;;;5030563;28;20033;-61
2021/03/19 07:38:15;;;;;;;12.27;6.10;;;4.40;99.90;;;;;;5030993;28;20036;-62
2021/03/19 07:41:13;;;;;;;12.65;5.03;;;4.30;99.90;;;;;;5032120;28;20034;-61
2021/03/19 07:44:05;;;;;;;12.18;6.65;;;4.30;99.90;;;;;;5028835;28;20100;-61
2021/03/19 07:46:52;;;;;;;12.02;6.20;;;4.30;99.90;;;;;;5030483;28;20040;-61
2021/03/19 07:49:36;;;;;;;11.15;6.40;;;4.30;99.90;;;;;;5028758;28;20642;-61
2021/03/19 07:52:25;;;;;;;9.82;5.97;;;4.20;99.90;;;;;;5036781;28;20084;-61
2021/03/19 07:55:12;;;;;;;8.27;4.85;;;4.30;99.90;;;;;;5036031;28;20152;-61
2021/03/19 07:57:44;;;;;;;8.15;3.85;;;4.30;99.90;;;;;;5018032;28;20052;-61
2021/03/19 08:00:28;;;;;;;7.43;4.00;;;4.10;99.90;;;;;;5015477;28;20078;-61
2021/03/19 08:02:58;;;;;;;7.70;4.38;;;4.30;99.90;;;;;;5037143;28;20151;-61
2021/03/19 08:05:28;;;;;;;6.93;3.95;;;4.20;99.90;;;;;;5032167;28;20659;-61
2021/03/19 08:08:28;;;;;;;5.60;3.72;;;4.30;99.90;;;;;;5041467;28;20083;-61
2021/03/19 08:11:01;;;;;;;6.13;4.03;;;4.30;99.90;;;;;;5044954;28;20028;-61
2021/03/19 08:13:29;;;;;;;6.70;3.53;;;4.10;99.90;;;;;;5043804;28;20170;-61
2021/03/19 08:16:28;;;;;;;6.88;3.40;;;4.10;99.90;;;;;;5042043;28;20513;-62
2021/03/19 08:18:59;;;;;;;8.30;3.80;;;4.30;99.90;;;;;;5035407;28;20605;-62
2021/03/19 08:21:34;;;;;;;5.55;3.75;;;4.30;99.90;;;;;;5039492;28;20056;-61
2021/03/19 08:24:12;;;;;;;4.32;2.90;;;4.20;99.90;;;;;;5029677;28;20529;-61
2021/03/19 08:26:44;;;;;;;4.78;3.25;;;4.20;99.90;;;;;;5034756;28;20029;-63
2021/03/19 08:29:21;;;;;;;3.55;2.92;;;4.20;99.90;;;;;;5046731;28;20308;-63
2021/03/19 08:31:54;;;;;;;4.22;3.42;;;4.00;99.90;;;;;;5034421;28;20570;-62
2021/03/19 08:34:43;;;;;;;9.80;4.05;;;4.20;99.90;;;;;;5026621;28;20026;-62
2021/03/19 08:37:25;;;;;;;5.53;3.40;;;4.10;99.90;;;;;;5014189;28;20041;-62
2021/03/19 08:39:53;;;;;;;5.43;3.45;;;4.10;99.90;;;;;;5028399;28;20441;-62
2021/03/19 08:42:20;;;;;;;5.78;3.22;;;4.20;99.90;;;;;;5033190;28;20033;-62
2021/03/19 08:44:47;;;;;;;10.75;4.00;;;4.10;99.90;;;;;;5029299;28;20112;-63
2021/03/19 08:47:34;;;;;;;6.70;3.88;;;4.20;99.90;;;;;;5029880;28;20036;-62
2021/03/19 08:50:12;;;;;;;5.07;3.30;;;4.20;99.90;;;;;;5028672;28;20030;-61
2021/03/19 08:52:40;;;;;;;3.20;2.58;;;4.20;99.90;;;;;;5026662;28;20087;-61
2021/03/19 08:55:16;;;;;;;3.05;2.67;;;4.00;99.90;;;;;;5029241;28;20375;-61
2021/03/19 08:57:44;;;;;;;3.55;2.45;;;3.90;99.90;;;;;;5028349;28;20117;-62
2021/03/19 09:00:34;;;;;;;2.22;2.03;;;3.90;99.90;;;;;;5029855;28;20646;-61
2021/03/19 09:03:03;;;;;;;2.78;2.38;;;4.10;99.90;;;;;;5028619;28;20422;-62
2021/03/19 09:05:35;;;;;;;2.35;1.92;;;4.00;99.90;;;;;;5029108;28;20038;-61
2021/03/19 09:08:24;;;;;;;2.20;2.00;;;4.10;99.90;;;;;;5029558;28;20033;-61
2021/03/19 09:10:52;;;;;;;2.17;2.00;;;4.00;99.90;;;;;;5031850;28;20615;-61
2021/03/19 09:13:21;;;;;;;2.92;1.83;;;4.20;99.90;;;;;;5028987;28;20434;-62
2021/03/19 09:15:50;;;;;;;2.97;1.70;;;3.90;99.90;;;;;;5031984;28;20215;-61
2021/03/19 09:18:47;;;;;;;2.35;2.15;;;3.70;99.90;;;;;;5029096;28;20029;-61
2021/03/19 09:21:36;;;;;;;3.13;2.08;;;3.80;99.90;;;;;;5033221;28;20111;-61
2021/03/19 09:24:13;;;;;;;2.30;2.10;;;3.90;99.90;;;;;;5046351;28;20027;-61
2021/03/19 09:26:51;;;;;;;3.63;2.00;;;4.10;99.90;;;;;;5030582;28;20486;-61
2021/03/19 09:29:16;;;;;;;2.13;1.83;;;3.90;99.90;;;;;;5020670;28;20021;-62
2021/03/19 09:31:54;;;;;;;1.90;1.80;;;3.70;99.90;;;;;;5023764;28;20036;-61
2021/03/19 09:34:22;;;;;;;1.60;1.50;;;4.00;99.90;;;;;;5042661;28;20033;-62
2021/03/19 09:36:56;;;;;;;2.63;2.20;;;3.90;99.90;;;;;;5045326;28;20490;-60
2021/03/19 09:39:44;;;;;;;2.08;1.90;;;4.20;99.90;;;;;;5030588;28;20098;-61
2021/03/19 09:42:29;;;;;;;1.85;1.60;;;4.40;99.90;;;;;;5042540;28;20048;-64
2021/03/19 09:44:58;;;;;;;3.03;1.77;;;4.60;99.90;;;;;;5021818;28;20488;-63
2021/03/19 09:47:47;;;;;;;4.45;2.90;;;4.30;99.90;;;;;;5036256;28;20025;-63
2021/03/19 09:50:15;;;;;;;4.25;3.85;;;4.50;99.90;;;;;;5035207;28;20132;-64
2021/03/19 09:53:05;;;;;;;2.50;2.30;;;4.60;99.90;;;;;;5045582;28;20037;-64
2021/03/19 09:55:52;;;;;;;5.65;4.57;;;4.70;99.90;;;;;;5051330;28;20010;-63
2021/03/19 09:58:22;;;;;;;3.38;3.13;;;4.60;99.90;;;;;;5033695;28;20021;-63
2021/03/19 10:00:51;;;;;;;2.92;2.72;;;4.60;99.90;;;;;;5040013;28;20029;-63
2021/03/19 10:03:17;;;;;;;2.90;2.70;;;4.40;99.90;;;;;;5038729;28;20084;-63
2021/03/19 10:05:46;;;;;;;3.47;3.17;;;4.50;99.90;;;;;;5038724;28;20053;-63
2021/03/19 10:08:28;;;;;;;3.10;2.80;;;4.80;99.90;;;;;;5032769;28;20524;-63
2021/03/19 10:11:11;;;;;;;2.97;2.78;;;4.80;99.90;;;;;;5039807;28;20067;-62
2021/03/19 10:13:37;;;;;;;3.35;3.05;;;4.80;99.90;;;;;;5049792;28;20033;-63
2021/03/19 10:16:03;;;;;;;3.75;2.60;;;5.00;99.90;;;;;;5032180;28;20609;-61
2021/03/19 10:18:45;;;;;;;3.78;3.47;;;4.90;99.90;;;;;;5036200;28;20052;-63
2021/03/19 10:21:18;;;;;;;3.38;3.08;;;5.00;99.90;;;;;;5038828;28;20061;-63
2021/03/19 10:23:55;;;;;;;3.63;3.33;;;4.90;99.90;;;;;;5052628;28;20028;-64
2021/03/19 10:26:43;;;;;;;3.30;3.03;;;5.00;99.90;;;;;;5051078;28;20029;-63
2021/03/19 10:29:17;;;;;;;2.83;2.63;;;4.90;99.90;;;;;;5041185;28;20076;-64
2021/03/19 10:31:51;;;;;;;3.67;3.38;;;4.90;99.90;;;;;;5031568;28;20026;-63
2021/03/19 10:34:37;;;;;;;3.55;2.67;;;4.90;99.90;;;;;;5027374;28;20582;-62
2021/03/19 10:37:34;;;;;;;3.03;2.83;;;4.70;99.90;;;;;;5044907;28;20048;-62
2021/03/19 10:40:17;;;;;;;3.90;3.60;;;5.00;99.90;;;;;;5032448;28;20033;-63
2021/03/19 10:42:51;;;;;;;3.80;3.50;;;4.90;99.90;;;;;;5036681;28;20052;-62
2021/03/19 10:45:20;;;;;;;3.78;3.40;;;5.00;99.90;;;;;;5033116;28;20024;-62
2021/03/19 10:48:09;;;;;;;3.85;3.50;;;4.70;99.90;;;;;;5041106;28;20112;-63
2021/03/19 10:50:51;;;;;;;2.75;2.55;;;4.90;99.90;;;;;;5034641;28;20029;-62
2021/03/19 10:53:22;;;;;;;3.50;3.20;;;4.90;99.90;;;;;;5036234;28;20017;-62
2021/03/19 10:55:50;;;;;;;3.70;3.40;;;5.00;99.90;;;;;;5047894;28;20043;-63
2021/03/19 10:58:24;;;;;;;4.00;3.60;;;4.90;99.90;;;;;;5044047;28;20052;-63
2021/03/19 11:00:52;;;;;;;6.47;5.32;;;5.10;99.90;;;;;;5047305;28;20033;-63
2021/03/19 11:03:33;;;;;;;5.50;5.00;;;5.10;99.90;;;;;;5043590;28;20033;-63
2021/03/19 11:06:12;;;;;;;4.93;4.38;;;5.00;99.90;;;;;;5041210;28;20075;-63
2021/03/19 11:08:38;;;;;;;5.00;4.50;;;5.10;99.90;;;;;;5032239;28;20048;-63
2021/03/19 11:11:05;;;;;;;5.03;4.53;;;5.30;99.90;;;;;;5032337;28;20512;-64
2021/03/19 11:13:37;;;;;;;3.85;3.60;;;5.10;99.90;;;;;;5032438;28;20022;-63
2021/03/19 11:16:24;;;;;;;3.78;3.40;;;5.10;99.90;;;;;;5035128;28;20029;-65
2021/03/19 11:19:03;;;;;;;5.82;3.38;;;5.10;99.90;;;;;;5031976;28;20099;-64
2021/03/19 11:21:31;;;;;;;4.18;3.83;;;4.90;99.90;;;;;;5032520;28;20486;-63
2021/03/19 11:24:17;;;;;;;4.10;3.80;;;5.10;99.90;;;;;;5031046;28;20029;-63
2021/03/19 11:26:57;;;;;;;4.43;4.07;;;5.10;99.90;;;;;;5031434;28;20037;-64
2021/03/19 11:29:26;;;;;;;3.63;3.33;;;5.10;99.90;;;;;;5030119;28;20049;-63
2021/03/19 11:31:56;;;;;;;5.38;3.65;;;5.10;99.90;;;;;;5031089;28;20552;-63
2021/03/19 11:34:37;;;;;;;4.45;4.10;;;4.90;99.90;;;;;;5031432;28;20021;-65
2021/03/19 11:37:22;;;;;;;4.40;4.00;;;5.20;99.90;;;;;;5033264;28;20017;-63
2021/03/19 11:39:57;;;;;;;4.45;4.05;;;5.10;99.90;;;;;;5030195;28;20021;-64
2021/03/19 11:42:52;;;;;;;5.70;4.40;;;5.20;99.90;;;;;;5042170;28;20071;-64
2021/03/19 11:45:41;;;;;;;5.72;5.15;;;5.20;99.90;;;;;;5034083;28;20122;-63
2021/03/19 11:48:13;;;;;;;7.97;6.63;;;5.30;99.90;;;;;;5032303;28;20030;-63
2021/03/19 11:50:41;;;;;;;9.40;6.90;;;5.30;99.90;;;;;;5032124;28;20026;-63
2021/03/19 11:53:10;;;;;;;8.02;6.07;;;5.20;99.90;;;;;;5031274;28;20021;-63
2021/03/19 11:55:42;;;;;;;10.77;6.57;;;5.40;99.90;;;;;;5034285;28;20013;-63
2021/03/19 11:58:12;;;;;;;6.53;5.07;;;5.30;99.90;;;;;;5034777;28;20021;-63
2021/03/19 12:00:40;;;;;;;5.45;5.05;;;5.20;99.90;;;;;;5034414;28;20116;-62
2021/03/19 12:03:10;;;;;;;5.22;4.72;;;5.30;99.90;;;;;;5041659;28;20525;-63
2021/03/19 12:05:36;;;;;;;6.15;5.55;;;5.30;99.90;;;;;;5035243;28;20055;-63
2021/03/19 12:08:03;;;;;;;5.75;5.25;;;5.20;99.90;;;;;;5041833;28;20021;-63
2021/03/19 12:10:29;;;;;;;7.60;5.13;;;5.40;99.90;;;;;;5046820;28;20021;-65
2021/03/19 12:12:57;;;;;;;7.53;5.85;;;5.40;99.90;;;;;;5041702;28;20501;-63
2021/03/19 12:15:24;;;;;;;6.28;5.40;;;5.60;99.90;;;;;;5046687;28;20083;-63
2021/03/19 12:17:50;;;;;;;5.53;5.03;;;5.40;99.90;;;;;;5041771;28;20459;-64
2021/03/19 12:20:16;;;;;;;6.28;5.68;;;5.40;99.90;;;;;;5046508;28;20024;-63
2021/03/19 12:22:42;;;;;;;5.32;4.93;;;5.40;99.90;;;;;;5041015;28;20088;-62
2021/03/19 12:25:15;;;;;;;4.75;4.30;;;5.40;99.90;;;;;;5047304;28;20021;-63
2021/03/19 12:27:41;;;;;;;4.63;4.10;;;5.40;99.90;;;;;;5035028;28;20026;-63
2021/03/19 12:30:07;;;;;;;4.65;3.80;;;5.40;99.90;;;;;;5029537;28;21055;-63
2021/03/19 12:32:33;;;;;;;4.43;4.03;;;5.20;99.90;;;;;;5040299;28;20032;-63
2021/03/19 12:34:59;;;;;;;5.18;4.13;;;5.40;99.90;;;;;;5048660;28;20393;-63
2021/03/19 12:37:24;;;;;;;4.60;4.20;;;5.50;99.90;;;;;;5036069;28;20534;-63
2021/03/19 12:39:50;;;;;;;4.05;3.75;;;5.50;99.90;;;;;;5029764;28;20056;-62
2021/03/19 12:42:16;;;;;;;4.40;3.70;;;5.50;99.90;;;;;;5023926;28;20030;-61
2021/03/19 12:44:41;;;;;;;4.85;4.50;;;5.60;99.90;;;;;;5029376;28;20040;-63
2021/03/19 12:47:07;;;;;;;4.55;3.80;;;5.50;99.90;;;;;;5037375;28;20022;-61
2021/03/19 12:49:33;;;;;;;5.25;4.75;;;5.50;99.90;;;;;;5029609;28;20545;-63
2021/03/19 12:51:58;;;;;;;4.18;3.88;;;5.40;99.90;;;;;;5029480;28;20022;-62
2021/03/19 12:54:24;;;;;;;6.57;4.35;;;5.50;99.90;;;;;;5030195;28;20060;-61
2021/03/19 12:56:50;;;;;;;5.80;4.28;;;5.50;99.90;;;;;;5030436;28;20017;-63
2021/03/19 12:59:15;;;;;;;10.18;6.25;;;5.40;99.90;;;;;;5028837;28;20029;-63
2021/03/19 13:01:41;;;;;;;8.15;5.40;;;5.60;99.90;;;;;;5031660;28;20551;-62
2021/03/19 13:04:08;;;;;;;8.05;5.80;;;5.50;99.90;;;;;;5028390;28;20025;-62
2021/03/19 13:06:34;;;;;;;6.03;5.60;;;5.50;99.90;;;;;;5028072;28;20033;-62
2021/03/19 13:08:59;;;;;;;6.00;5.20;;;5.50;99.90;;;;;;5028897;28;20037;-61
2021/03/19 13:11:25;;;;;;;5.40;5.00;;;5.50;99.90;;;;;;5032157;28;20425;-61
2021/03/19 13:13:51;;;;;;;5.18;4.68;;;5.60;99.90;;;;;;5031022;28;20428;-61
2021/03/19 13:16:18;;;;;;;5.43;4.93;;;5.60;99.90;;;;;;5027274;28;20052;-60
2021/03/19 13:18:43;;;;;;;7.10;6.50;;;5.60;99.90;;;;;;5026456;28;20544;-61
2021/03/19 13:21:09;;;;;;;6.35;5.72;;;5.60;99.90;;;;;;5026464;28;20029;-60
2021/03/19 13:23:35;;;;;;;4.57;4.18;;;5.70;99.90;;;;;;5026994;28;20045;-61
2021/03/19 13:26:01;;;;;;;4.97;4.53;;;5.60;99.90;;;;;;5030411;28;20028;-61